Little Lake, MI (49833)

5:56 AM EDT on May 26, 2015 (GMT -0400)
MesoWest | | Change Station
CLOSE
Current Station
Personal Weather Station
Location: Little Lake, MI
Elevation: 1107 ft
Nearby Weather Stations

Elev 1107 ft 46.28 °N, 87.42 °W | Updated 31 minutes ago

Partly Cloudy
Partly Cloudy
60 °F
Feels Like 60 °F
N
2
Wind Variable Wind from SSW
Gusts 5.0 mph

Today
High -- | Low -- °F
--% Chance of Precip.
Yesterday
High -- | Low -- °F
Precip. -- in
6:05 AM 9:27 PM
First Quarter, 56% visible
Pressure 29.82 in
Visibility 7.0 miles
Clouds Scattered Clouds 4400 ft
Scattered Clouds 5000 ft
Mostly Cloudy 9500 ft
Dew Point 58 °F
Humidity 95%
Rainfall in
Snow Depth Not available.
UV 0 out of 12
Pollen .90 out of 12
Air Quality Not available.
Flu Activity Sporadic
METAR KSAW 260937Z AUTO 20003KT 7SM SCT044 SCT050 BKN095 15/14 A2982 RMK AO2 T01480140

More Conditions Fewer Conditions

Pressure 29.82 in
Visibility 7.0 miles
Clouds Scattered Clouds 4400 ft
Scattered Clouds 5000 ft
Mostly Cloudy 9500 ft
Dew Point 58 °F
Humidity 95%
Rainfall in
Snow Depth Not available.
UV 0 out of 12
Pollen .90 out of 12
Air Quality Not available.
Flu Activity Sporadic
METAR KSAW 260937Z AUTO 20003KT 7SM SCT044 SCT050 BKN095 15/14 A2982 RMK AO2 T01480140

More Conditions Fewer Conditions

10-Day Weather Forecast

Almanac

Astronomy

May. 26, 2015 Rise Set
Actual Time
Civil Twilight
Nautical Twilight
Astronomical Twilight
Moon
Length of Visible Light
Length of Day
Tomorrow will be .
, % of the Moon is Illuminated

Today's Extremes

State Highs State Lows

Community

WunderPhotos

Upload Photos

1,824,302 photos uploaded!

WunderBlogs® & News

Nearby

Air Quality

  Air Quality AQ Index Pollutant
Not available.

Snow Depth

Station Depth Elevation

Earthquake Activity

City Distance Mag. Time & Date
Minimum magnitude displayed is 2.5.

Coastal Water Temperatures

Place Temperature

Stations

Nearby Weather Stations

Station Location Temp. Windchill Dew Point Humidity Wind Precip. Elev Updated Type